Davison Army Air Field
KDAA : now visible

Airfield :











YOU CAN JOIN US ON...

 
LOGIN :

Register | Disclaimer

   EN    FR    IT 

 









Legend :    VFR   Marginal VFR   IFR   Intensive IFR   Very Intensive IFR
Visi :
Ceiling :
>= 8 km
>= 3000ft
5 to 8 km
1000 to 3000 ft
1500m to 5 km
500 to 1000 ft
800 to 1500m
200 to 500 ft
< 800m
< 200 ft
Symbols :   Thunderstorms  Fog  Heavy snow  Heavy precipitations  Wind > 20 kt







- Airport Elevation : 73 ft


KDAA - Davison Army Air Field

CURRENT METAR :
  • 210756Z AUTO 13003KT 10SM CLR 24/22 A2986 RMK AO2 SLP114 T02390221 $

EXPIRED METARs :
  • 210656Z AUTO 00000KT 10SM CLR 25/22 A2988 RMK AO2 SLP120 T02510222 $
  • 210556Z AUTO 00000KT 10SM CLR 26/22 A2989 RMK AO2 SLP124 60000 T02580218 10347 20252 52004 $

TAF TAF KDAA
Valid from the 21 at 01:00 until the 22 at 07:00 UTC


210100Z 2101/2207 25009KT 9999 SCT050 QNH2986INS
BECMG 2123/2124 30012KT 9999 BKN050 QNH2988INS TX37/2121Z TN28/2109Z LAST NO AMDS AFT 2101 NEXT 2109
KZDC FIR / North America



MET'MAP, your aeronautical weather chart ! - Copyright ORBIFLY December 2007 - Disclaimer

ORBIFLY MET'MAP TEAM :

Programming & Development : Alexandra Zaïnal
Concept & Development : Baudouin d'Aumeries
Co-Development & Prog : Marc-Olivier Méhu
Technical & hardware support : Manuel Goepfert

Contact : metmap@orbifly.com




SOURCES & CREDITS :

   NOAA       Earth
Advisory